sensor_id;sensor_type;location;lat;lon;timestamp;P1;durP1;ratioP1;P2;durP2;ratioP2
20375;SDS011;10347;51.828;6.466;2023-05-13T00:01:42;4.03;;;3.35;;
20375;SDS011;10347;51.828;6.466;2023-05-13T00:04:08;5.40;;;3.53;;
20375;SDS011;10347;51.828;6.466;2023-05-13T00:06:34;3.38;;;3.08;;
20375;SDS011;10347;51.828;6.466;2023-05-13T00:09:00;3.72;;;2.90;;
20375;SDS011;10347;51.828;6.466;2023-05-13T00:11:26;3.10;;;2.90;;
20375;SDS011;10347;51.828;6.466;2023-05-13T00:13:52;3.15;;;2.95;;
20375;SDS011;10347;51.828;6.466;2023-05-13T00:16:17;4.70;;;3.20;;
20375;SDS011;10347;51.828;6.466;2023-05-13T00:18:43;4.00;;;2.83;;
20375;SDS011;10347;51.828;6.466;2023-05-13T00:21:08;3.70;;;3.38;;
20375;SDS011;10347;51.828;6.466;2023-05-13T00:23:34;3.58;;;3.38;;
20375;SDS011;10347;51.828;6.466;2023-05-13T00:26:00;4.53;;;3.33;;
20375;SDS011;10347;51.828;6.466;2023-05-13T00:28:25;4.95;;;3.40;;
20375;SDS011;10347;51.828;6.466;2023-05-13T00:30:51;3.38;;;3.17;;
20375;SDS011;10347;51.828;6.466;2023-05-13T00:33:17;5.00;;;3.50;;
20375;SDS011;10347;51.828;6.466;2023-05-13T00:35:42;4.13;;;3.38;;
20375;SDS011;10347;51.828;6.466;2023-05-13T00:38:08;4.53;;;3.50;;
20375;SDS011;10347;51.828;6.466;2023-05-13T00:40:36;3.13;;;2.92;;
20375;SDS011;10347;51.828;6.466;2023-05-13T00:43:06;3.55;;;3.25;;
20375;SDS011;10347;51.828;6.466;2023-05-13T00:45:31;3.95;;;3.65;;
20375;SDS011;10347;51.828;6.466;2023-05-13T00:47:57;4.28;;;3.72;;
20375;SDS011;10347;51.828;6.466;2023-05-13T00:50:24;4.60;;;3.60;;
20375;SDS011;10347;51.828;6.466;2023-05-13T00:52:50;3.65;;;3.35;;
20375;SDS011;10347;51.828;6.466;2023-05-13T00:55:15;4.40;;;3.40;;
20375;SDS011;10347;51.828;6.466;2023-05-13T00:57:41;4.25;;;3.85;;
20375;SDS011;10347;51.828;6.466;2023-05-13T01:00:07;5.95;;;3.85;;
20375;SDS011;10347;51.828;6.466;2023-05-13T01:05:30;5.25;;;4.35;;
20375;SDS011;10347;51.828;6.466;2023-05-13T01:08:28;5.28;;;3.83;;
20375;SDS011;10347;51.828;6.466;2023-05-13T01:11:18;4.85;;;3.60;;
20375;SDS011;10347;51.828;6.466;2023-05-13T01:13:47;4.18;;;3.80;;
20375;SDS011;10347;51.828;6.466;2023-05-13T01:16:20;4.47;;;3.80;;
20375;SDS011;10347;51.828;6.466;2023-05-13T01:18:52;5.68;;;4.30;;
20375;SDS011;10347;51.828;6.466;2023-05-13T01:21:27;3.85;;;3.55;;
20375;SDS011;10347;51.828;6.466;2023-05-13T01:23:53;4.43;;;4.03;;
20375;SDS011;10347;51.828;6.466;2023-05-13T01:26:19;6.07;;;3.72;;
20375;SDS011;10347;51.828;6.466;2023-05-13T01:28:47;4.28;;;3.85;;
20375;SDS011;10347;51.828;6.466;2023-05-13T01:31:13;4.40;;;4.00;;
20375;SDS011;10347;51.828;6.466;2023-05-13T01:33:39;4.20;;;3.72;;
20375;SDS011;10347;51.828;6.466;2023-05-13T01:36:07;5.22;;;4.03;;
20375;SDS011;10347;51.828;6.466;2023-05-13T01:38:34;4.15;;;3.80;;
20375;SDS011;10347;51.828;6.466;2023-05-13T01:41:00;4.05;;;3.60;;
20375;SDS011;10347;51.828;6.466;2023-05-13T01:43:26;5.53;;;4.40;;
20375;SDS011;10347;51.828;6.466;2023-05-13T01:45:51;4.60;;;4.20;;
20375;SDS011;10347;51.828;6.466;2023-05-13T01:48:17;4.25;;;3.83;;
20375;SDS011;10347;51.828;6.466;2023-05-13T01:50:43;5.75;;;4.00;;
20375;SDS011;10347;51.828;6.466;2023-05-13T01:53:09;5.47;;;4.65;;
20375;SDS011;10347;51.828;6.466;2023-05-13T01:55:35;6.70;;;4.40;;
20375;SDS011;10347;51.828;6.466;2023-05-13T01:58:00;4.80;;;4.40;;
20375;SDS011;10347;51.828;6.466;2023-05-13T02:00:26;4.35;;;4.03;;
20375;SDS011;10347;51.828;6.466;2023-05-13T02:02:51;6.63;;;4.32;;
20375;SDS011;10347;51.828;6.466;2023-05-13T02:05:17;5.97;;;4.53;;
20375;SDS011;10347;51.828;6.466;2023-05-13T02:07:43;6.78;;;4.82;;
20375;SDS011;10347;51.828;6.466;2023-05-13T02:10:09;7.10;;;4.63;;
20375;SDS011;10347;51.828;6.466;2023-05-13T02:12:34;5.50;;;4.90;;
20375;SDS011;10347;51.828;6.466;2023-05-13T02:15:00;7.05;;;5.00;;
20375;SDS011;10347;51.828;6.466;2023-05-13T02:17:26;6.15;;;4.95;;
20375;SDS011;10347;51.828;6.466;2023-05-13T02:19:51;5.57;;;5.05;;
20375;SDS011;10347;51.828;6.466;2023-05-13T02:22:17;6.15;;;4.50;;
20375;SDS011;10347;51.828;6.466;2023-05-13T02:24:43;7.20;;;4.63;;
20375;SDS011;10347;51.828;6.466;2023-05-13T02:27:08;5.03;;;4.55;;
20375;SDS011;10347;51.828;6.466;2023-05-13T02:29:36;5.05;;;4.55;;
20375;SDS011;10347;51.828;6.466;2023-05-13T02:32:02;6.50;;;5.22;;
20375;SDS011;10347;51.828;6.466;2023-05-13T02:34:28;5.20;;;4.70;;
20375;SDS011;10347;51.828;6.466;2023-05-13T02:36:54;5.15;;;4.55;;
20375;SDS011;10347;51.828;6.466;2023-05-13T02:39:19;7.50;;;5.65;;
20375;SDS011;10347;51.828;6.466;2023-05-13T02:41:45;6.25;;;5.22;;
20375;SDS011;10347;51.828;6.466;2023-05-13T02:44:10;6.93;;;5.03;;
20375;SDS011;10347;51.828;6.466;2023-05-13T02:46:36;8.13;;;5.75;;
20375;SDS011;10347;51.828;6.466;2023-05-13T02:49:02;5.68;;;5.18;;
20375;SDS011;10347;51.828;6.466;2023-05-13T02:51:27;5.80;;;5.30;;
20375;SDS011;10347;51.828;6.466;2023-05-13T02:53:53;7.72;;;5.47;;
20375;SDS011;10347;51.828;6.466;2023-05-13T02:56:18;5.72;;;5.13;;
20375;SDS011;10347;51.828;6.466;2023-05-13T02:58:44;6.05;;;5.38;;
20375;SDS011;10347;51.828;6.466;2023-05-13T03:01:10;6.10;;;5.50;;
20375;SDS011;10347;51.828;6.466;2023-05-13T03:03:36;6.93;;;5.75;;
20375;SDS011;10347;51.828;6.466;2023-05-13T03:06:01;6.07;;;5.45;;
20375;SDS011;10347;51.828;6.466;2023-05-13T03:08:27;11.10;;;6.68;;
20375;SDS011;10347;51.828;6.466;2023-05-13T03:10:53;8.80;;;6.20;;
20375;SDS011;10347;51.828;6.466;2023-05-13T03:13:18;12.32;;;6.15;;
20375;SDS011;10347;51.828;6.466;2023-05-13T03:15:44;5.88;;;5.28;;
20375;SDS011;10347;51.828;6.466;2023-05-13T03:18:09;7.15;;;6.05;;
20375;SDS011;10347;51.828;6.466;2023-05-13T03:20:35;10.30;;;6.05;;
20375;SDS011;10347;51.828;6.466;2023-05-13T03:23:01;6.30;;;5.38;;
20375;SDS011;10347;51.828;6.466;2023-05-13T03:25:27;8.32;;;5.88;;
20375;SDS011;10347;51.828;6.466;2023-05-13T03:27:53;7.13;;;6.40;;
20375;SDS011;10347;51.828;6.466;2023-05-13T03:30:18;7.00;;;6.30;;
20375;SDS011;10347;51.828;6.466;2023-05-13T03:32:44;8.10;;;6.15;;
20375;SDS011;10347;51.828;6.466;2023-05-13T03:35:09;7.53;;;6.72;;
20375;SDS011;10347;51.828;6.466;2023-05-13T03:37:35;8.82;;;6.28;;
20375;SDS011;10347;51.828;6.466;2023-05-13T03:40:01;6.45;;;5.85;;
20375;SDS011;10347;51.828;6.466;2023-05-13T03:42:27;7.05;;;6.35;;
20375;SDS011;10347;51.828;6.466;2023-05-13T03:44:54;7.15;;;6.13;;
20375;SDS011;10347;51.828;6.466;2023-05-13T03:47:21;8.68;;;6.82;;
20375;SDS011;10347;51.828;6.466;2023-05-13T03:49:47;7.38;;;6.50;;
20375;SDS011;10347;51.828;6.466;2023-05-13T03:52:12;9.40;;;6.80;;
20375;SDS011;10347;51.828;6.466;2023-05-13T03:54:38;7.35;;;6.00;;
20375;SDS011;10347;51.828;6.466;2023-05-13T03:57:04;6.75;;;6.13;;
20375;SDS011;10347;51.828;6.466;2023-05-13T03:59:31;8.57;;;6.82;;
20375;SDS011;10347;51.828;6.466;2023-05-13T04:01:56;6.90;;;6.20;;
20375;SDS011;10347;51.828;6.466;2023-05-13T04:04:22;7.90;;;6.95;;
20375;SDS011;10347;51.828;6.466;2023-05-13T04:06:47;9.52;;;6.68;;
20375;SDS011;10347;51.828;6.466;2023-05-13T04:09:13;8.88;;;6.60;;
20375;SDS011;10347;51.828;6.466;2023-05-13T04:11:38;7.75;;;6.55;;
20375;SDS011;10347;51.828;6.466;2023-05-13T04:14:04;10.52;;;6.93;;
20375;SDS011;10347;51.828;6.466;2023-05-13T04:16:29;10.07;;;6.75;;
20375;SDS011;10347;51.828;6.466;2023-05-13T04:18:55;10.60;;;7.13;;
20375;SDS011;10347;51.828;6.466;2023-05-13T04:21:20;8.98;;;6.72;;
20375;SDS011;10347;51.828;6.466;2023-05-13T04:23:46;6.78;;;6.18;;
20375;SDS011;10347;51.828;6.466;2023-05-13T04:26:12;8.75;;;6.85;;
20375;SDS011;10347;51.828;6.466;2023-05-13T04:28:37;9.45;;;6.47;;
20375;SDS011;10347;51.828;6.466;2023-05-13T04:31:03;7.45;;;6.47;;
20375;SDS011;10347;51.828;6.466;2023-05-13T04:33:28;7.22;;;6.28;;
20375;SDS011;10347;51.828;6.466;2023-05-13T04:35:54;7.78;;;6.97;;
20375;SDS011;10347;51.828;6.466;2023-05-13T04:38:20;9.40;;;6.65;;
20375;SDS011;10347;51.828;6.466;2023-05-13T04:40:45;8.48;;;6.68;;
20375;SDS011;10347;51.828;6.466;2023-05-13T04:43:11;10.20;;;7.35;;
20375;SDS011;10347;51.828;6.466;2023-05-13T04:45:38;7.50;;;6.70;;
20375;SDS011;10347;51.828;6.466;2023-05-13T04:48:03;7.50;;;6.70;;
20375;SDS011;10347;51.828;6.466;2023-05-13T04:50:29;11.38;;;6.97;;
20375;SDS011;10347;51.828;6.466;2023-05-13T04:52:55;10.20;;;6.95;;
20375;SDS011;10347;51.828;6.466;2023-05-13T04:55:23;9.68;;;7.63;;
20375;SDS011;10347;51.828;6.466;2023-05-13T04:57:48;8.55;;;6.80;;
20375;SDS011;10347;51.828;6.466;2023-05-13T05:00:14;8.98;;;8.02;;
20375;SDS011;10347;51.828;6.466;2023-05-13T05:02:40;8.65;;;7.43;;
20375;SDS011;10347;51.828;6.466;2023-05-13T05:05:05;9.10;;;7.50;;
20375;SDS011;10347;51.828;6.466;2023-05-13T05:07:31;8.25;;;7.40;;
20375;SDS011;10347;51.828;6.466;2023-05-13T05:09:57;8.55;;;6.90;;
20375;SDS011;10347;51.828;6.466;2023-05-13T05:12:22;9.15;;;7.82;;
20375;SDS011;10347;51.828;6.466;2023-05-13T05:14:48;10.45;;;7.63;;
20375;SDS011;10347;51.828;6.466;2023-05-13T05:17:14;7.70;;;6.72;;
20375;SDS011;10347;51.828;6.466;2023-05-13T05:19:39;8.05;;;6.70;;
20375;SDS011;10347;51.828;6.466;2023-05-13T05:22:05;10.15;;;8.00;;
20375;SDS011;10347;51.828;6.466;2023-05-13T05:24:32;9.15;;;7.72;;
20375;SDS011;10347;51.828;6.466;2023-05-13T05:26:57;13.20;;;8.75;;
20375;SDS011;10347;51.828;6.466;2023-05-13T05:29:23;8.40;;;7.30;;
20375;SDS011;10347;51.828;6.466;2023-05-13T05:31:49;7.07;;;6.47;;
20375;SDS011;10347;51.828;6.466;2023-05-13T05:34:14;7.95;;;7.05;;
20375;SDS011;10347;51.828;6.466;2023-05-13T05:36:40;9.48;;;7.85;;
20375;SDS011;10347;51.828;6.466;2023-05-13T05:39:05;9.40;;;8.13;;
20375;SDS011;10347;51.828;6.466;2023-05-13T05:41:31;9.15;;;7.28;;
20375;SDS011;10347;51.828;6.466;2023-05-13T05:43:57;9.70;;;8.13;;
20375;SDS011;10347;51.828;6.466;2023-05-13T05:46:22;13.68;;;7.88;;
20375;SDS011;10347;51.828;6.466;2023-05-13T05:48:48;8.48;;;7.13;;
20375;SDS011;10347;51.828;6.466;2023-05-13T05:51:14;10.50;;;8.05;;
20375;SDS011;10347;51.828;6.466;2023-05-13T05:53:39;12.70;;;8.43;;
20375;SDS011;10347;51.828;6.466;2023-05-13T05:56:06;8.25;;;7.25;;
20375;SDS011;10347;51.828;6.466;2023-05-13T05:58:32;12.77;;;8.50;;
20375;SDS011;10347;51.828;6.466;2023-05-13T06:00:57;8.60;;;7.70;;
20375;SDS011;10347;51.828;6.466;2023-05-13T06:03:24;10.30;;;7.85;;
20375;SDS011;10347;51.828;6.466;2023-05-13T06:05:51;11.63;;;8.10;;
20375;SDS011;10347;51.828;6.466;2023-05-13T06:08:16;9.18;;;7.57;;
20375;SDS011;10347;51.828;6.466;2023-05-13T06:10:42;10.10;;;8.07;;
20375;SDS011;10347;51.828;6.466;2023-05-13T06:13:08;9.40;;;7.70;;
20375;SDS011;10347;51.828;6.466;2023-05-13T06:15:34;12.88;;;7.82;;
20375;SDS011;10347;51.828;6.466;2023-05-13T06:18:00;9.82;;;7.53;;
20375;SDS011;10347;51.828;6.466;2023-05-13T06:20:29;12.57;;;8.73;;
20375;SDS011;10347;51.828;6.466;2023-05-13T06:22:55;8.70;;;7.80;;
20375;SDS011;10347;51.828;6.466;2023-05-13T06:25:20;9.52;;;8.30;;
20375;SDS011;10347;51.828;6.466;2023-05-13T06:27:46;8.75;;;7.85;;
20375;SDS011;10347;51.828;6.466;2023-05-13T06:30:11;14.40;;;9.18;;
20375;SDS011;10347;51.828;6.466;2023-05-13T06:32:37;13.02;;;8.57;;
20375;SDS011;10347;51.828;6.466;2023-05-13T06:35:03;12.68;;;8.30;;
20375;SDS011;10347;51.828;6.466;2023-05-13T06:37:28;10.90;;;8.55;;
20375;SDS011;10347;51.828;6.466;2023-05-13T06:39:54;8.90;;;7.53;;
20375;SDS011;10347;51.828;6.466;2023-05-13T06:42:19;9.50;;;7.85;;
20375;SDS011;10347;51.828;6.466;2023-05-13T06:44:45;7.80;;;6.43;;
20375;SDS011;10347;51.828;6.466;2023-05-13T06:47:11;11.52;;;8.80;;
20375;SDS011;10347;51.828;6.466;2023-05-13T06:49:39;8.65;;;7.75;;
20375;SDS011;10347;51.828;6.466;2023-05-13T06:52:05;8.85;;;7.60;;
20375;SDS011;10347;51.828;6.466;2023-05-13T06:54:31;9.57;;;7.65;;
20375;SDS011;10347;51.828;6.466;2023-05-13T06:56:56;9.30;;;7.95;;
20375;SDS011;10347;51.828;6.466;2023-05-13T06:59:22;8.45;;;7.65;;
20375;SDS011;10347;51.828;6.466;2023-05-13T07:01:47;8.70;;;6.82;;
20375;SDS011;10347;51.828;6.466;2023-05-13T07:04:13;8.45;;;7.57;;
20375;SDS011;10347;51.828;6.466;2023-05-13T07:06:38;9.57;;;7.72;;
20375;SDS011;10347;51.828;6.466;2023-05-13T07:09:04;9.48;;;7.60;;
20375;SDS011;10347;51.828;6.466;2023-05-13T07:11:30;10.07;;;7.95;;
20375;SDS011;10347;51.828;6.466;2023-05-13T07:13:56;10.45;;;8.07;;
20375;SDS011;10347;51.828;6.466;2023-05-13T07:16:21;16.40;;;8.93;;
20375;SDS011;10347;51.828;6.466;2023-05-13T07:18:47;9.25;;;7.82;;
20375;SDS011;10347;51.828;6.466;2023-05-13T07:21:13;10.38;;;8.88;;
20375;SDS011;10347;51.828;6.466;2023-05-13T07:23:39;10.30;;;9.20;;
20375;SDS011;10347;51.828;6.466;2023-05-13T07:26:05;14.60;;;9.95;;
20375;SDS011;10347;51.828;6.466;2023-05-13T07:28:30;12.95;;;10.32;;
20375;SDS011;10347;51.828;6.466;2023-05-13T07:30:56;10.52;;;9.32;;
20375;SDS011;10347;51.828;6.466;2023-05-13T07:33:22;9.88;;;8.85;;
20375;SDS011;10347;51.828;6.466;2023-05-13T07:35:48;11.43;;;8.98;;
20375;SDS011;10347;51.828;6.466;2023-05-13T07:38:13;9.63;;;8.45;;
20375;SDS011;10347;51.828;6.466;2023-05-13T07:40:39;10.68;;;7.82;;
20375;SDS011;10347;51.828;6.466;2023-05-13T07:43:04;10.40;;;9.20;;
20375;SDS011;10347;51.828;6.466;2023-05-13T07:45:30;8.95;;;7.97;;
20375;SDS011;10347;51.828;6.466;2023-05-13T07:47:56;14.90;;;9.05;;
20375;SDS011;10347;51.828;6.466;2023-05-13T07:50:21;11.48;;;9.13;;
20375;SDS011;10347;51.828;6.466;2023-05-13T07:52:47;9.23;;;8.27;;
20375;SDS011;10347;51.828;6.466;2023-05-13T07:55:14;11.27;;;9.20;;
20375;SDS011;10347;51.828;6.466;2023-05-13T07:57:40;10.73;;;9.30;;
20375;SDS011;10347;51.828;6.466;2023-05-13T08:00:06;12.25;;;8.55;;
20375;SDS011;10347;51.828;6.466;2023-05-13T08:02:31;12.98;;;7.95;;
20375;SDS011;10347;51.828;6.466;2023-05-13T08:04:59;12.40;;;7.93;;
20375;SDS011;10347;51.828;6.466;2023-05-13T08:07:25;11.40;;;8.20;;
20375;SDS011;10347;51.828;6.466;2023-05-13T08:09:50;10.70;;;8.02;;
20375;SDS011;10347;51.828;6.466;2023-05-13T08:12:16;11.20;;;7.95;;
20375;SDS011;10347;51.828;6.466;2023-05-13T08:14:41;7.85;;;6.85;;
20375;SDS011;10347;51.828;6.466;2023-05-13T08:17:07;9.95;;;7.30;;
20375;SDS011;10347;51.828;6.466;2023-05-13T08:19:32;10.00;;;8.38;;
20375;SDS011;10347;51.828;6.466;2023-05-13T08:21:59;11.57;;;7.78;;
20375;SDS011;10347;51.828;6.466;2023-05-13T08:24:25;13.60;;;8.30;;
20375;SDS011;10347;51.828;6.466;2023-05-13T08:26:50;10.88;;;7.93;;
20375;SDS011;10347;51.828;6.466;2023-05-13T08:29:16;9.77;;;8.85;;
20375;SDS011;10347;51.828;6.466;2023-05-13T08:31:41;14.85;;;8.40;;
20375;SDS011;10347;51.828;6.466;2023-05-13T08:34:07;8.65;;;7.22;;
20375;SDS011;10347;51.828;6.466;2023-05-13T08:36:33;8.50;;;6.25;;
20375;SDS011;10347;51.828;6.466;2023-05-13T08:38:58;11.32;;;7.78;;
20375;SDS011;10347;51.828;6.466;2023-05-13T08:41:25;9.98;;;8.35;;
20375;SDS011;10347;51.828;6.466;2023-05-13T08:43:51;9.30;;;8.30;;
20375;SDS011;10347;51.828;6.466;2023-05-13T08:46:18;9.80;;;7.30;;
20375;SDS011;10347;51.828;6.466;2023-05-13T08:48:44;7.70;;;6.57;;
20375;SDS011;10347;51.828;6.466;2023-05-13T08:51:10;9.70;;;7.55;;
20375;SDS011;10347;51.828;6.466;2023-05-13T08:53:37;11.32;;;7.30;;
20375;SDS011;10347;51.828;6.466;2023-05-13T08:56:04;10.88;;;8.15;;
20375;SDS011;10347;51.828;6.466;2023-05-13T08:58:31;11.27;;;8.20;;
20375;SDS011;10347;51.828;6.466;2023-05-13T09:00:57;13.15;;;8.20;;
20375;SDS011;10347;51.828;6.466;2023-05-13T09:03:22;7.53;;;6.75;;
20375;SDS011;10347;51.828;6.466;2023-05-13T09:05:49;9.38;;;7.25;;
20375;SDS011;10347;51.828;6.466;2023-05-13T09:08:15;10.27;;;7.40;;
20375;SDS011;10347;51.828;6.466;2023-05-13T09:10:41;10.85;;;8.05;;
20375;SDS011;10347;51.828;6.466;2023-05-13T09:13:06;12.98;;;8.68;;
20375;SDS011;10347;51.828;6.466;2023-05-13T09:15:32;9.70;;;8.68;;
20375;SDS011;10347;51.828;6.466;2023-05-13T09:20:30;9.88;;;8.27;;
20375;SDS011;10347;51.828;6.466;2023-05-13T09:23:00;11.73;;;7.90;;
20375;SDS011;10347;51.828;6.466;2023-05-13T09:25:27;8.50;;;7.18;;
20375;SDS011;10347;51.828;6.466;2023-05-13T09:27:54;9.30;;;6.88;;
20375;SDS011;10347;51.828;6.466;2023-05-13T09:30:24;12.35;;;7.88;;
20375;SDS011;10347;51.828;6.466;2023-05-13T09:35:47;14.05;;;7.68;;
20375;SDS011;10347;51.828;6.466;2023-05-13T09:38:15;10.35;;;6.97;;
20375;SDS011;10347;51.828;6.466;2023-05-13T09:40:52;9.85;;;7.13;;
20375;SDS011;10347;51.828;6.466;2023-05-13T09:43:19;8.48;;;7.50;;
20375;SDS011;10347;51.828;6.466;2023-05-13T09:45:55;9.48;;;7.75;;
20375;SDS011;10347;51.828;6.466;2023-05-13T09:48:26;8.93;;;7.30;;
20375;SDS011;10347;51.828;6.466;2023-05-13T09:50:53;9.52;;;6.57;;
20375;SDS011;10347;51.828;6.466;2023-05-13T09:53:21;10.00;;;6.30;;
20375;SDS011;10347;51.828;6.466;2023-05-13T09:55:48;11.60;;;6.82;;
20375;SDS011;10347;51.828;6.466;2023-05-13T09:58:16;7.28;;;5.53;;
20375;SDS011;10347;51.828;6.466;2023-05-13T10:00:44;7.13;;;6.07;;
20375;SDS011;10347;51.828;6.466;2023-05-13T10:03:10;7.25;;;6.30;;
20375;SDS011;10347;51.828;6.466;2023-05-13T10:05:35;6.40;;;5.70;;
20375;SDS011;10347;51.828;6.466;2023-05-13T10:08:03;9.43;;;6.05;;
20375;SDS011;10347;51.828;6.466;2023-05-13T10:10:30;7.75;;;6.25;;
20375;SDS011;10347;51.828;6.466;2023-05-13T10:13:19;7.28;;;6.07;;
20375;SDS011;10347;51.828;6.466;2023-05-13T10:15:48;7.80;;;5.28;;
20375;SDS011;10347;51.828;6.466;2023-05-13T10:18:17;6.80;;;6.03;;
20375;SDS011;10347;51.828;6.466;2023-05-13T10:20:43;6.85;;;5.80;;
20375;SDS011;10347;51.828;6.466;2023-05-13T10:23:09;6.72;;;5.38;;
20375;SDS011;10347;51.828;6.466;2023-05-13T10:25:36;6.60;;;4.80;;
20375;SDS011;10347;51.828;6.466;2023-05-13T10:28:02;5.93;;;5.32;;
20375;SDS011;10347;51.828;6.466;2023-05-13T10:30:29;4.88;;;4.47;;
20375;SDS011;10347;51.828;6.466;2023-05-13T10:32:56;5.97;;;4.20;;
20375;SDS011;10347;51.828;6.466;2023-05-13T10:35:23;7.88;;;5.18;;
20375;SDS011;10347;51.828;6.466;2023-05-13T10:43:15;7.63;;;5.05;;
20375;SDS011;10347;51.828;6.466;2023-05-13T10:45:43;6.53;;;4.88;;
20375;SDS011;10347;51.828;6.466;2023-05-13T10:48:10;6.35;;;4.10;;
20375;SDS011;10347;51.828;6.466;2023-05-13T10:50:37;7.00;;;4.40;;
20375;SDS011;10347;51.828;6.466;2023-05-13T10:53:17;4.70;;;4.20;;
20375;SDS011;10347;51.828;6.466;2023-05-13T10:55:52;5.30;;;3.63;;
20375;SDS011;10347;51.828;6.466;2023-05-13T10:58:20;8.38;;;4.03;;
20375;SDS011;10347;51.828;6.466;2023-05-13T11:00:52;6.05;;;3.80;;
20375;SDS011;10347;51.828;6.466;2023-05-13T11:05:43;5.70;;;3.13;;
20375;SDS011;10347;51.828;6.466;2023-05-13T11:08:11;3.75;;;3.45;;
20375;SDS011;10347;51.828;6.466;2023-05-13T11:10:56;3.40;;;2.83;;
20375;SDS011;10347;51.828;6.466;2023-05-13T11:13:22;6.32;;;2.75;;
20375;SDS011;10347;51.828;6.466;2023-05-13T11:15:52;3.95;;;2.70;;
20375;SDS011;10347;51.828;6.466;2023-05-13T11:18:19;3.97;;;3.10;;
20375;SDS011;10347;51.828;6.466;2023-05-13T11:20:52;2.53;;;2.33;;
20375;SDS011;10347;51.828;6.466;2023-05-13T11:23:18;4.53;;;2.60;;
20375;SDS011;10347;51.828;6.466;2023-05-13T11:25:44;4.93;;;2.80;;
20375;SDS011;10347;51.828;6.466;2023-05-13T11:28:14;4.40;;;2.83;;
20375;SDS011;10347;51.828;6.466;2023-05-13T11:30:51;6.10;;;2.75;;
20375;SDS011;10347;51.828;6.466;2023-05-13T11:33:21;3.63;;;2.60;;
20375;SDS011;10347;51.828;6.466;2023-05-13T11:35:53;4.55;;;3.10;;
20375;SDS011;10347;51.828;6.466;2023-05-13T11:38:21;2.83;;;2.63;;
20375;SDS011;10347;51.828;6.466;2023-05-13T11:40:48;3.30;;;3.00;;
20375;SDS011;10347;51.828;6.466;2023-05-13T11:43:17;4.40;;;3.10;;
20375;SDS011;10347;51.828;6.466;2023-05-13T11:45:44;4.00;;;2.78;;
20375;SDS011;10347;51.828;6.466;2023-05-13T11:48:16;3.05;;;2.50;;
20375;SDS011;10347;51.828;6.466;2023-05-13T11:50:46;5.00;;;2.65;;
20375;SDS011;10347;51.828;6.466;2023-05-13T11:53:17;3.10;;;2.78;;
20375;SDS011;10347;51.828;6.466;2023-05-13T11:55:45;2.78;;;2.58;;
20375;SDS011;10347;51.828;6.466;2023-05-13T11:58:12;5.80;;;2.53;;
20375;SDS011;10347;51.828;6.466;2023-05-13T12:00:39;2.58;;;2.30;;
20375;SDS011;10347;51.828;6.466;2023-05-13T12:03:09;2.10;;;1.90;;
20375;SDS011;10347;51.828;6.466;2023-05-13T12:05:37;4.20;;;2.65;;
20375;SDS011;10347;51.828;6.466;2023-05-13T12:08:06;5.28;;;3.00;;
20375;SDS011;10347;51.828;6.466;2023-05-13T12:10:33;3.00;;;2.30;;
20375;SDS011;10347;51.828;6.466;2023-05-13T12:12:59;4.03;;;2.40;;
20375;SDS011;10347;51.828;6.466;2023-05-13T12:15:25;3.20;;;2.90;;
20375;SDS011;10347;51.828;6.466;2023-05-13T12:17:52;3.20;;;2.70;;
20375;SDS011;10347;51.828;6.466;2023-05-13T12:20:19;2.92;;;2.67;;
20375;SDS011;10347;51.828;6.466;2023-05-13T12:27:59;2.53;;;2.25;;
20375;SDS011;10347;51.828;6.466;2023-05-13T12:30:52;3.75;;;2.80;;
20375;SDS011;10347;51.828;6.466;2023-05-13T12:33:19;4.07;;;2.40;;
20375;SDS011;10347;51.828;6.466;2023-05-13T12:35:47;4.00;;;2.10;;
20375;SDS011;10347;51.828;6.466;2023-05-13T12:38:15;3.55;;;2.33;;
20375;SDS011;10347;51.828;6.466;2023-05-13T12:40:43;3.13;;;2.55;;
20375;SDS011;10347;51.828;6.466;2023-05-13T12:43:10;3.80;;;2.58;;
20375;SDS011;10347;51.828;6.466;2023-05-13T12:45:37;6.38;;;2.78;;
20375;SDS011;10347;51.828;6.466;2023-05-13T12:48:04;3.05;;;2.25;;
20375;SDS011;10347;51.828;6.466;2023-05-13T12:50:30;3.92;;;2.55;;
20375;SDS011;10347;51.828;6.466;2023-05-13T12:52:55;6.97;;;2.25;;
20375;SDS011;10347;51.828;6.466;2023-05-13T12:55:21;2.72;;;2.53;;
20375;SDS011;10347;51.828;6.466;2023-05-13T12:58:00;3.22;;;2.50;;
20375;SDS011;10347;51.828;6.466;2023-05-13T13:00:26;3.70;;;2.08;;
20375;SDS011;10347;51.828;6.466;2023-05-13T13:02:53;2.40;;;2.20;;
20375;SDS011;10347;51.828;6.466;2023-05-13T13:05:20;4.70;;;2.47;;
20375;SDS011;10347;51.828;6.466;2023-05-13T13:07:46;2.40;;;2.20;;
20375;SDS011;10347;51.828;6.466;2023-05-13T13:10:12;4.80;;;2.50;;
20375;SDS011;10347;51.828;6.466;2023-05-13T13:12:37;11.93;;;3.53;;
20375;SDS011;10347;51.828;6.466;2023-05-13T13:15:04;6.45;;;2.80;;
20375;SDS011;10347;51.828;6.466;2023-05-13T13:17:30;4.78;;;3.10;;
20375;SDS011;10347;51.828;6.466;2023-05-13T13:19:56;2.80;;;2.22;;
20375;SDS011;10347;51.828;6.466;2023-05-13T13:22:21;3.88;;;2.67;;
20375;SDS011;10347;51.828;6.466;2023-05-13T13:24:47;4.47;;;2.00;;
20375;SDS011;10347;51.828;6.466;2023-05-13T13:27:12;7.70;;;3.17;;
20375;SDS011;10347;51.828;6.466;2023-05-13T13:29:38;2.90;;;2.15;;
20375;SDS011;10347;51.828;6.466;2023-05-13T13:32:04;3.58;;;2.22;;
20375;SDS011;10347;51.828;6.466;2023-05-13T13:34:30;2.70;;;1.90;;
20375;SDS011;10347;51.828;6.466;2023-05-13T13:36:56;2.88;;;2.17;;
20375;SDS011;10347;51.828;6.466;2023-05-13T13:39:21;4.43;;;1.80;;
20375;SDS011;10347;51.828;6.466;2023-05-13T13:41:47;1.88;;;1.77;;
20375;SDS011;10347;51.828;6.466;2023-05-13T13:44:12;2.10;;;1.90;;
20375;SDS011;10347;51.828;6.466;2023-05-13T13:46:38;6.78;;;2.55;;
20375;SDS011;10347;51.828;6.466;2023-05-13T13:49:04;4.22;;;2.17;;
20375;SDS011;10347;51.828;6.466;2023-05-13T13:51:29;2.10;;;1.90;;
20375;SDS011;10347;51.828;6.466;2023-05-13T13:53:55;2.95;;;2.70;;
20375;SDS011;10347;51.828;6.466;2023-05-13T13:56:21;2.38;;;1.98;;
20375;SDS011;10347;51.828;6.466;2023-05-13T13:58:47;3.33;;;2.10;;
20375;SDS011;10347;51.828;6.466;2023-05-13T14:01:12;2.78;;;2.47;;
20375;SDS011;10347;51.828;6.466;2023-05-13T14:03:39;2.92;;;2.10;;
20375;SDS011;10347;51.828;6.466;2023-05-13T14:06:05;2.38;;;2.00;;
20375;SDS011;10347;51.828;6.466;2023-05-13T14:08:30;2.20;;;2.00;;
20375;SDS011;10347;51.828;6.466;2023-05-13T14:10:56;3.55;;;2.22;;
20375;SDS011;10347;51.828;6.466;2023-05-13T14:13:21;2.13;;;1.90;;
20375;SDS011;10347;51.828;6.466;2023-05-13T14:15:47;2.60;;;2.20;;
20375;SDS011;10347;51.828;6.466;2023-05-13T14:18:13;2.33;;;1.85;;
20375;SDS011;10347;51.828;6.466;2023-05-13T14:20:38;3.13;;;2.08;;
20375;SDS011;10347;51.828;6.466;2023-05-13T14:23:04;2.33;;;2.13;;
20375;SDS011;10347;51.828;6.466;2023-05-13T14:25:29;5.07;;;2.22;;
20375;SDS011;10347;51.828;6.466;2023-05-13T14:27:55;2.50;;;2.30;;
20375;SDS011;10347;51.828;6.466;2023-05-13T14:30:20;2.30;;;2.10;;
20375;SDS011;10347;51.828;6.466;2023-05-13T14:32:46;7.78;;;7.07;;
20375;SDS011;10347;51.828;6.466;2023-05-13T14:35:12;4.57;;;4.18;;
20375;SDS011;10347;51.828;6.466;2023-05-13T14:37:38;4.07;;;3.67;;
20375;SDS011;10347;51.828;6.466;2023-05-13T14:40:05;4.00;;;2.40;;
20375;SDS011;10347;51.828;6.466;2023-05-13T14:42:31;3.08;;;2.30;;
20375;SDS011;10347;51.828;6.466;2023-05-13T14:44:56;6.20;;;2.72;;
20375;SDS011;10347;51.828;6.466;2023-05-13T14:47:22;2.10;;;1.90;;
20375;SDS011;10347;51.828;6.466;2023-05-13T14:49:47;2.95;;;1.75;;
20375;SDS011;10347;51.828;6.466;2023-05-13T14:52:13;2.00;;;1.90;;
20375;SDS011;10347;51.828;6.466;2023-05-13T14:54:39;3.38;;;2.17;;
20375;SDS011;10347;51.828;6.466;2023-05-13T14:57:05;5.90;;;2.05;;
20375;SDS011;10347;51.828;6.466;2023-05-13T14:59:31;2.55;;;1.65;;
20375;SDS011;10347;51.828;6.466;2023-05-13T15:01:57;2.20;;;2.00;;
20375;SDS011;10347;51.828;6.466;2023-05-13T15:04:24;2.30;;;2.10;;